ソウル/仁川 の空港の天気 - METARとTAF

仁川国際空港 ( RKSI / ICN ) - 韓国 仁川広域市 (ソウル特別市近郊)
飛行場実況気象(Metar)
観測時間12/10 00:30 KST (12/09 15:30 UTC)
風向・風速北 1m/s
視程10km以上
天気現象
なし
気温2℃
湿度55%
気圧1023hPa
METARRKSI 091530Z 36001KT CAVOK 02/M06 Q1023 NOSIG
過去の天気等 Google飛行場航空写真 Wunderground天気予報

過去48時間のMETAR

飛行場予報(TAF)
発表時間: 12/09 20:00 KST (12/09 11:00 UTC)
予報対象時間: 9日21時 KST ~ 11日3時 KST
風向・風速北 3m/s
視程10km以上
なし
10日20時 KST ~ 10日21時 KST に徐々に
風向・風速北 8m/s 瞬間風速 13m/s
視程10km以上
全天の4割程度の雲 雲底高度 1220m
TAF RKSI 091100Z 0912/1018 35006KT CAVOK TNM01/0921Z TX06/1005Z
BECMG 1011/1012 35015G25KT 9999 SCT040